sensor_id;sensor_type;location;lat;lon;timestamp;P1;durP1;ratioP1;P2;durP2;ratioP2
20322;SDS011;10319;52.206;20.996;2023-04-24T00:02:15;11.70;;;3.30;;
20322;SDS011;10319;52.206;20.996;2023-04-24T00:04:41;10.63;;;3.30;;
20322;SDS011;10319;52.206;20.996;2023-04-24T00:07:09;12.10;;;3.50;;
20322;SDS011;10319;52.206;20.996;2023-04-24T00:09:34;12.10;;;3.50;;
20322;SDS011;10319;52.206;20.996;2023-04-24T00:11:59;11.53;;;3.43;;
20322;SDS011;10319;52.206;20.996;2023-04-24T00:14:25;13.40;;;4.00;;
20322;SDS011;10319;52.206;20.996;2023-04-24T00:16:50;13.47;;;3.70;;
20322;SDS011;10319;52.206;20.996;2023-04-24T00:19:15;12.03;;;3.77;;
20322;SDS011;10319;52.206;20.996;2023-04-24T00:21:41;12.30;;;3.80;;
20322;SDS011;10319;52.206;20.996;2023-04-24T00:24:06;13.30;;;3.57;;
20322;SDS011;10319;52.206;20.996;2023-04-24T00:26:33;12.87;;;3.90;;
20322;SDS011;10319;52.206;20.996;2023-04-24T00:28:59;13.40;;;4.07;;
20322;SDS011;10319;52.206;20.996;2023-04-24T00:31:24;12.17;;;3.80;;
20322;SDS011;10319;52.206;20.996;2023-04-24T00:33:49;12.03;;;3.83;;
20322;SDS011;10319;52.206;20.996;2023-04-24T00:36:14;12.97;;;3.90;;
20322;SDS011;10319;52.206;20.996;2023-04-24T00:38:40;12.87;;;3.53;;
20322;SDS011;10319;52.206;20.996;2023-04-24T00:41:05;13.40;;;4.03;;
20322;SDS011;10319;52.206;20.996;2023-04-24T00:43:30;14.20;;;3.73;;
20322;SDS011;10319;52.206;20.996;2023-04-24T00:45:56;11.67;;;3.60;;
20322;SDS011;10319;52.206;20.996;2023-04-24T00:48:22;14.50;;;4.03;;
20322;SDS011;10319;52.206;20.996;2023-04-24T00:50:48;13.63;;;3.90;;
20322;SDS011;10319;52.206;20.996;2023-04-24T00:53:13;15.13;;;4.53;;
20322;SDS011;10319;52.206;20.996;2023-04-24T00:55:38;12.03;;;3.80;;
20322;SDS011;10319;52.206;20.996;2023-04-24T00:58:04;15.27;;;4.30;;
20322;SDS011;10319;52.206;20.996;2023-04-24T01:00:29;14.20;;;4.27;;
20322;SDS011;10319;52.206;20.996;2023-04-24T01:02:55;12.97;;;3.50;;
20322;SDS011;10319;52.206;20.996;2023-04-24T01:05:22;14.20;;;4.03;;
20322;SDS011;10319;52.206;20.996;2023-04-24T01:07:48;15.13;;;4.20;;
20322;SDS011;10319;52.206;20.996;2023-04-24T01:10:14;13.73;;;4.10;;
20322;SDS011;10319;52.206;20.996;2023-04-24T01:12:39;13.10;;;4.23;;
20322;SDS011;10319;52.206;20.996;2023-04-24T01:15:05;13.47;;;4.17;;
20322;SDS011;10319;52.206;20.996;2023-04-24T01:17:31;11.97;;;3.70;;
20322;SDS011;10319;52.206;20.996;2023-04-24T01:19:57;13.40;;;3.60;;
20322;SDS011;10319;52.206;20.996;2023-04-24T01:22:23;12.17;;;3.87;;
20322;SDS011;10319;52.206;20.996;2023-04-24T01:24:48;13.83;;;4.30;;
20322;SDS011;10319;52.206;20.996;2023-04-24T01:27:13;14.10;;;3.93;;
20322;SDS011;10319;52.206;20.996;2023-04-24T01:29:39;12.00;;;4.00;;
20322;SDS011;10319;52.206;20.996;2023-04-24T01:32:04;13.70;;;4.20;;
20322;SDS011;10319;52.206;20.996;2023-04-24T01:34:30;12.80;;;4.10;;
20322;SDS011;10319;52.206;20.996;2023-04-24T01:36:55;13.13;;;3.70;;
20322;SDS011;10319;52.206;20.996;2023-04-24T01:39:21;11.63;;;3.83;;
20322;SDS011;10319;52.206;20.996;2023-04-24T01:41:48;13.37;;;3.63;;
20322;SDS011;10319;52.206;20.996;2023-04-24T01:44:14;12.80;;;3.70;;
20322;SDS011;10319;52.206;20.996;2023-04-24T01:46:40;12.00;;;3.77;;
20322;SDS011;10319;52.206;20.996;2023-04-24T01:49:06;13.13;;;4.13;;
20322;SDS011;10319;52.206;20.996;2023-04-24T01:51:31;13.17;;;4.50;;
20322;SDS011;10319;52.206;20.996;2023-04-24T01:53:56;13.50;;;4.43;;
20322;SDS011;10319;52.206;20.996;2023-04-24T01:56:22;13.87;;;3.90;;
20322;SDS011;10319;52.206;20.996;2023-04-24T01:58:47;12.90;;;4.00;;
20322;SDS011;10319;52.206;20.996;2023-04-24T02:01:19;14.57;;;4.10;;
20322;SDS011;10319;52.206;20.996;2023-04-24T02:03:45;14.50;;;4.10;;
20322;SDS011;10319;52.206;20.996;2023-04-24T02:06:10;15.90;;;4.87;;
20322;SDS011;10319;52.206;20.996;2023-04-24T02:08:35;14.23;;;4.40;;
20322;SDS011;10319;52.206;20.996;2023-04-24T02:11:00;16.77;;;4.73;;
20322;SDS011;10319;52.206;20.996;2023-04-24T02:13:27;12.90;;;4.07;;
20322;SDS011;10319;52.206;20.996;2023-04-24T02:15:52;12.20;;;3.87;;
20322;SDS011;10319;52.206;20.996;2023-04-24T02:18:17;13.97;;;4.30;;
20322;SDS011;10319;52.206;20.996;2023-04-24T02:20:42;14.37;;;4.40;;
20322;SDS011;10319;52.206;20.996;2023-04-24T02:23:08;12.70;;;3.93;;
20322;SDS011;10319;52.206;20.996;2023-04-24T02:25:33;13.90;;;4.60;;
20322;SDS011;10319;52.206;20.996;2023-04-24T02:27:58;16.73;;;4.87;;
20322;SDS011;10319;52.206;20.996;2023-04-24T02:30:23;14.83;;;4.70;;
20322;SDS011;10319;52.206;20.996;2023-04-24T02:32:49;12.63;;;4.00;;
20322;SDS011;10319;52.206;20.996;2023-04-24T02:35:14;13.27;;;4.47;;
20322;SDS011;10319;52.206;20.996;2023-04-24T02:37:39;13.40;;;4.63;;
20322;SDS011;10319;52.206;20.996;2023-04-24T02:40:05;13.53;;;4.10;;
20322;SDS011;10319;52.206;20.996;2023-04-24T02:42:30;12.97;;;4.50;;
20322;SDS011;10319;52.206;20.996;2023-04-24T02:44:56;13.20;;;4.10;;
20322;SDS011;10319;52.206;20.996;2023-04-24T02:47:21;13.73;;;4.60;;
20322;SDS011;10319;52.206;20.996;2023-04-24T02:49:46;13.70;;;4.83;;
20322;SDS011;10319;52.206;20.996;2023-04-24T02:52:11;14.47;;;4.30;;
20322;SDS011;10319;52.206;20.996;2023-04-24T02:54:36;12.97;;;4.00;;
20322;SDS011;10319;52.206;20.996;2023-04-24T02:57:02;14.33;;;4.40;;
20322;SDS011;10319;52.206;20.996;2023-04-24T02:59:27;13.10;;;4.17;;
20322;SDS011;10319;52.206;20.996;2023-04-24T03:01:53;13.67;;;4.00;;
20322;SDS011;10319;52.206;20.996;2023-04-24T03:04:19;13.80;;;3.97;;
20322;SDS011;10319;52.206;20.996;2023-04-24T03:06:45;14.47;;;4.03;;
20322;SDS011;10319;52.206;20.996;2023-04-24T03:09:10;13.07;;;4.07;;
20322;SDS011;10319;52.206;20.996;2023-04-24T03:11:36;14.03;;;4.73;;
20322;SDS011;10319;52.206;20.996;2023-04-24T03:14:01;15.20;;;4.37;;
20322;SDS011;10319;52.206;20.996;2023-04-24T03:16:27;13.30;;;4.27;;
20322;SDS011;10319;52.206;20.996;2023-04-24T03:18:52;13.63;;;4.47;;
20322;SDS011;10319;52.206;20.996;2023-04-24T03:21:17;14.13;;;4.30;;
20322;SDS011;10319;52.206;20.996;2023-04-24T03:23:43;13.53;;;4.03;;
20322;SDS011;10319;52.206;20.996;2023-04-24T03:26:08;14.13;;;4.47;;
20322;SDS011;10319;52.206;20.996;2023-04-24T03:28:33;13.30;;;4.13;;
20322;SDS011;10319;52.206;20.996;2023-04-24T03:30:58;13.47;;;4.43;;
20322;SDS011;10319;52.206;20.996;2023-04-24T03:33:23;14.30;;;4.50;;
20322;SDS011;10319;52.206;20.996;2023-04-24T03:35:49;13.97;;;4.50;;
20322;SDS011;10319;52.206;20.996;2023-04-24T03:38:14;14.40;;;4.53;;
20322;SDS011;10319;52.206;20.996;2023-04-24T03:40:39;13.83;;;4.23;;
20322;SDS011;10319;52.206;20.996;2023-04-24T03:43:04;14.07;;;4.33;;
20322;SDS011;10319;52.206;20.996;2023-04-24T03:45:31;13.33;;;4.33;;
20322;SDS011;10319;52.206;20.996;2023-04-24T03:47:56;13.37;;;4.30;;
20322;SDS011;10319;52.206;20.996;2023-04-24T03:50:21;14.97;;;4.90;;
20322;SDS011;10319;52.206;20.996;2023-04-24T03:52:47;14.53;;;5.03;;
20322;SDS011;10319;52.206;20.996;2023-04-24T03:55:12;15.80;;;5.10;;
20322;SDS011;10319;52.206;20.996;2023-04-24T03:57:39;15.13;;;5.03;;
20322;SDS011;10319;52.206;20.996;2023-04-24T04:00:05;15.27;;;5.17;;
20322;SDS011;10319;52.206;20.996;2023-04-24T04:02:31;14.70;;;4.63;;
20322;SDS011;10319;52.206;20.996;2023-04-24T04:04:56;14.63;;;4.80;;
20322;SDS011;10319;52.206;20.996;2023-04-24T04:07:21;15.83;;;5.10;;
20322;SDS011;10319;52.206;20.996;2023-04-24T04:09:46;14.80;;;5.07;;
20322;SDS011;10319;52.206;20.996;2023-04-24T04:12:12;16.00;;;5.10;;
20322;SDS011;10319;52.206;20.996;2023-04-24T04:14:37;16.43;;;5.10;;
20322;SDS011;10319;52.206;20.996;2023-04-24T04:17:03;14.93;;;5.10;;
20322;SDS011;10319;52.206;20.996;2023-04-24T04:19:28;14.23;;;5.00;;
20322;SDS011;10319;52.206;20.996;2023-04-24T04:21:53;14.40;;;4.83;;
20322;SDS011;10319;52.206;20.996;2023-04-24T04:24:21;16.30;;;4.73;;
20322;SDS011;10319;52.206;20.996;2023-04-24T04:26:47;16.03;;;5.43;;
20322;SDS011;10319;52.206;20.996;2023-04-24T04:29:13;13.70;;;5.07;;
20322;SDS011;10319;52.206;20.996;2023-04-24T04:31:38;15.67;;;5.03;;
20322;SDS011;10319;52.206;20.996;2023-04-24T04:34:03;13.57;;;4.70;;
20322;SDS011;10319;52.206;20.996;2023-04-24T04:36:29;14.63;;;5.07;;
20322;SDS011;10319;52.206;20.996;2023-04-24T04:38:54;16.13;;;4.77;;
20322;SDS011;10319;52.206;20.996;2023-04-24T04:41:19;13.57;;;4.50;;
20322;SDS011;10319;52.206;20.996;2023-04-24T04:43:45;14.30;;;5.00;;
20322;SDS011;10319;52.206;20.996;2023-04-24T04:46:11;14.93;;;5.03;;
20322;SDS011;10319;52.206;20.996;2023-04-24T04:48:36;14.97;;;4.80;;
20322;SDS011;10319;52.206;20.996;2023-04-24T04:51:02;13.83;;;4.70;;
20322;SDS011;10319;52.206;20.996;2023-04-24T04:53:27;16.10;;;5.07;;
20322;SDS011;10319;52.206;20.996;2023-04-24T04:55:52;14.20;;;4.77;;
20322;SDS011;10319;52.206;20.996;2023-04-24T04:58:18;14.50;;;5.10;;
20322;SDS011;10319;52.206;20.996;2023-04-24T05:00:43;15.00;;;5.00;;
20322;SDS011;10319;52.206;20.996;2023-04-24T05:03:09;15.20;;;5.00;;
20322;SDS011;10319;52.206;20.996;2023-04-24T05:05:34;13.40;;;4.40;;
20322;SDS011;10319;52.206;20.996;2023-04-24T05:07:59;14.87;;;4.97;;
20322;SDS011;10319;52.206;20.996;2023-04-24T05:10:25;13.67;;;4.50;;
20322;SDS011;10319;52.206;20.996;2023-04-24T05:12:50;15.50;;;4.67;;
20322;SDS011;10319;52.206;20.996;2023-04-24T05:15:15;14.57;;;4.97;;
20322;SDS011;10319;52.206;20.996;2023-04-24T05:17:40;15.20;;;4.93;;
20322;SDS011;10319;52.206;20.996;2023-04-24T05:20:06;15.17;;;5.00;;
20322;SDS011;10319;52.206;20.996;2023-04-24T05:22:32;14.63;;;4.53;;
20322;SDS011;10319;52.206;20.996;2023-04-24T05:24:57;14.00;;;4.37;;
20322;SDS011;10319;52.206;20.996;2023-04-24T05:27:22;14.27;;;4.70;;
20322;SDS011;10319;52.206;20.996;2023-04-24T05:29:47;15.07;;;4.80;;
20322;SDS011;10319;52.206;20.996;2023-04-24T05:32:13;15.37;;;4.90;;
20322;SDS011;10319;52.206;20.996;2023-04-24T05:34:38;14.23;;;4.47;;
20322;SDS011;10319;52.206;20.996;2023-04-24T05:37:03;13.93;;;4.70;;
20322;SDS011;10319;52.206;20.996;2023-04-24T05:39:33;15.30;;;4.80;;
20322;SDS011;10319;52.206;20.996;2023-04-24T05:41:58;12.90;;;4.53;;
20322;SDS011;10319;52.206;20.996;2023-04-24T05:44:23;13.57;;;4.27;;
20322;SDS011;10319;52.206;20.996;2023-04-24T05:46:48;13.97;;;4.13;;
20322;SDS011;10319;52.206;20.996;2023-04-24T05:49:14;14.70;;;4.53;;
20322;SDS011;10319;52.206;20.996;2023-04-24T05:51:39;16.03;;;4.83;;
20322;SDS011;10319;52.206;20.996;2023-04-24T05:54:04;14.90;;;4.80;;
20322;SDS011;10319;52.206;20.996;2023-04-24T05:56:30;16.53;;;4.67;;
20322;SDS011;10319;52.206;20.996;2023-04-24T05:58:55;17.40;;;5.20;;
20322;SDS011;10319;52.206;20.996;2023-04-24T06:04:23;12.90;;;4.20;;
20322;SDS011;10319;52.206;20.996;2023-04-24T06:06:49;15.17;;;4.07;;
20322;SDS011;10319;52.206;20.996;2023-04-24T06:09:16;14.47;;;4.90;;
20322;SDS011;10319;52.206;20.996;2023-04-24T06:11:41;13.90;;;4.60;;
20322;SDS011;10319;52.206;20.996;2023-04-24T06:14:07;14.52;;;4.93;;
20322;SDS011;10319;52.206;20.996;2023-04-24T06:16:32;13.02;;;4.00;;
20322;SDS011;10319;52.206;20.996;2023-04-24T06:18:58;13.02;;;4.38;;
20322;SDS011;10319;52.206;20.996;2023-04-24T06:21:23;13.48;;;4.57;;
20322;SDS011;10319;52.206;20.996;2023-04-24T06:23:48;13.18;;;4.90;;
20322;SDS011;10319;52.206;20.996;2023-04-24T06:26:14;14.55;;;5.00;;
20322;SDS011;10319;52.206;20.996;2023-04-24T06:28:39;13.45;;;4.68;;
20322;SDS011;10319;52.206;20.996;2023-04-24T06:31:05;15.48;;;4.97;;
20322;SDS011;10319;52.206;20.996;2023-04-24T06:33:30;15.40;;;5.07;;
20322;SDS011;10319;52.206;20.996;2023-04-24T06:35:55;14.00;;;4.75;;
20322;SDS011;10319;52.206;20.996;2023-04-24T06:38:21;14.05;;;4.28;;
20322;SDS011;10319;52.206;20.996;2023-04-24T06:40:46;15.40;;;4.97;;
20322;SDS011;10319;52.206;20.996;2023-04-24T06:43:11;13.82;;;4.60;;
20322;SDS011;10319;52.206;20.996;2023-04-24T06:45:37;13.63;;;4.55;;
20322;SDS011;10319;52.206;20.996;2023-04-24T06:48:04;15.95;;;4.68;;
20322;SDS011;10319;52.206;20.996;2023-04-24T06:50:29;15.38;;;4.80;;
20322;SDS011;10319;52.206;20.996;2023-04-24T06:52:54;14.00;;;4.50;;
20322;SDS011;10319;52.206;20.996;2023-04-24T06:55:19;14.25;;;4.22;;
20322;SDS011;10319;52.206;20.996;2023-04-24T06:57:45;15.25;;;4.45;;
20322;SDS011;10319;52.206;20.996;2023-04-24T07:00:10;13.65;;;4.30;;
20322;SDS011;10319;52.206;20.996;2023-04-24T07:02:36;13.98;;;4.18;;
20322;SDS011;10319;52.206;20.996;2023-04-24T07:05:02;12.98;;;4.32;;
20322;SDS011;10319;52.206;20.996;2023-04-24T07:07:27;14.25;;;4.18;;
20322;SDS011;10319;52.206;20.996;2023-04-24T07:09:53;12.95;;;4.03;;
20322;SDS011;10319;52.206;20.996;2023-04-24T07:12:19;14.13;;;4.32;;
20322;SDS011;10319;52.206;20.996;2023-04-24T07:14:45;12.50;;;3.65;;
20322;SDS011;10319;52.206;20.996;2023-04-24T07:17:11;12.65;;;3.60;;
20322;SDS011;10319;52.206;20.996;2023-04-24T07:19:38;13.48;;;4.20;;
20322;SDS011;10319;52.206;20.996;2023-04-24T07:22:03;14.43;;;4.10;;
20322;SDS011;10319;52.206;20.996;2023-04-24T07:24:28;13.95;;;3.83;;
20322;SDS011;10319;52.206;20.996;2023-04-24T07:26:53;14.10;;;4.03;;
20322;SDS011;10319;52.206;20.996;2023-04-24T07:29:19;14.63;;;3.92;;
20322;SDS011;10319;52.206;20.996;2023-04-24T07:31:44;12.02;;;3.83;;
20322;SDS011;10319;52.206;20.996;2023-04-24T07:34:10;14.10;;;3.88;;
20322;SDS011;10319;52.206;20.996;2023-04-24T07:36:35;12.15;;;3.72;;
20322;SDS011;10319;52.206;20.996;2023-04-24T07:39:01;13.73;;;4.20;;
20322;SDS011;10319;52.206;20.996;2023-04-24T07:41:26;12.98;;;4.53;;
20322;SDS011;10319;52.206;20.996;2023-04-24T07:43:53;13.93;;;4.65;;
20322;SDS011;10319;52.206;20.996;2023-04-24T07:46:18;15.27;;;4.60;;
20322;SDS011;10319;52.206;20.996;2023-04-24T07:48:44;13.73;;;4.20;;
20322;SDS011;10319;52.206;20.996;2023-04-24T07:51:09;17.90;;;4.32;;
20322;SDS011;10319;52.206;20.996;2023-04-24T07:53:36;14.05;;;4.45;;
20322;SDS011;10319;52.206;20.996;2023-04-24T07:56:01;15.27;;;4.07;;
20322;SDS011;10319;52.206;20.996;2023-04-24T07:58:26;16.05;;;4.32;;
20322;SDS011;10319;52.206;20.996;2023-04-24T08:00:51;14.15;;;4.50;;
20322;SDS011;10319;52.206;20.996;2023-04-24T08:03:16;13.43;;;4.22;;
20322;SDS011;10319;52.206;20.996;2023-04-24T08:05:44;13.20;;;4.28;;
20322;SDS011;10319;52.206;20.996;2023-04-24T08:08:09;13.90;;;4.47;;
20322;SDS011;10319;52.206;20.996;2023-04-24T08:10:34;13.30;;;4.30;;
20322;SDS011;10319;52.206;20.996;2023-04-24T08:13:00;15.60;;;4.22;;
20322;SDS011;10319;52.206;20.996;2023-04-24T08:15:25;15.88;;;4.30;;
20322;SDS011;10319;52.206;20.996;2023-04-24T08:17:50;13.32;;;3.95;;
20322;SDS011;10319;52.206;20.996;2023-04-24T08:20:16;15.40;;;4.57;;
20322;SDS011;10319;52.206;20.996;2023-04-24T08:22:41;15.35;;;4.82;;
20322;SDS011;10319;52.206;20.996;2023-04-24T08:25:07;13.65;;;4.30;;
20322;SDS011;10319;52.206;20.996;2023-04-24T08:27:32;13.43;;;3.60;;
20322;SDS011;10319;52.206;20.996;2023-04-24T08:29:57;12.13;;;3.92;;
20322;SDS011;10319;52.206;20.996;2023-04-24T08:32:24;13.82;;;4.30;;
20322;SDS011;10319;52.206;20.996;2023-04-24T08:34:50;14.43;;;4.22;;
20322;SDS011;10319;52.206;20.996;2023-04-24T08:37:17;14.63;;;4.47;;
20322;SDS011;10319;52.206;20.996;2023-04-24T08:39:42;15.88;;;4.50;;
20322;SDS011;10319;52.206;20.996;2023-04-24T08:42:08;16.13;;;4.35;;
20322;SDS011;10319;52.206;20.996;2023-04-24T08:44:33;14.23;;;3.95;;
20322;SDS011;10319;52.206;20.996;2023-04-24T08:46:59;14.27;;;4.18;;
20322;SDS011;10319;52.206;20.996;2023-04-24T08:49:25;14.75;;;4.45;;
20322;SDS011;10319;52.206;20.996;2023-04-24T08:51:52;13.45;;;4.30;;
20322;SDS011;10319;52.206;20.996;2023-04-24T08:54:17;15.30;;;4.30;;
20322;SDS011;10319;52.206;20.996;2023-04-24T08:56:43;14.32;;;4.18;;
20322;SDS011;10319;52.206;20.996;2023-04-24T08:59:09;12.05;;;3.75;;
20322;SDS011;10319;52.206;20.996;2023-04-24T09:01:35;12.48;;;3.83;;
20322;SDS011;10319;52.206;20.996;2023-04-24T09:04:02;14.13;;;3.72;;
20322;SDS011;10319;52.206;20.996;2023-04-24T09:06:28;13.57;;;3.88;;
20322;SDS011;10319;52.206;20.996;2023-04-24T09:08:53;12.52;;;4.05;;
20322;SDS011;10319;52.206;20.996;2023-04-24T09:11:20;14.82;;;4.13;;
20322;SDS011;10319;52.206;20.996;2023-04-24T09:13:48;12.77;;;3.75;;
20322;SDS011;10319;52.206;20.996;2023-04-24T09:16:13;12.73;;;3.80;;
20322;SDS011;10319;52.206;20.996;2023-04-24T09:18:39;12.30;;;3.33;;
20322;SDS011;10319;52.206;20.996;2023-04-24T09:21:06;14.05;;;3.75;;
20322;SDS011;10319;52.206;20.996;2023-04-24T09:23:32;11.80;;;3.60;;
20322;SDS011;10319;52.206;20.996;2023-04-24T09:25:58;13.18;;;3.67;;
20322;SDS011;10319;52.206;20.996;2023-04-24T09:28:46;11.30;;;3.53;;
20322;SDS011;10319;52.206;20.996;2023-04-24T09:31:14;14.00;;;3.30;;
20322;SDS011;10319;52.206;20.996;2023-04-24T09:33:53;11.63;;;3.15;;
20322;SDS011;10319;52.206;20.996;2023-04-24T09:36:18;11.75;;;3.15;;
20322;SDS011;10319;52.206;20.996;2023-04-24T09:38:43;11.32;;;3.17;;
20322;SDS011;10319;52.206;20.996;2023-04-24T09:41:10;12.35;;;3.55;;
20322;SDS011;10319;52.206;20.996;2023-04-24T09:43:38;11.52;;;3.67;;
20322;SDS011;10319;52.206;20.996;2023-04-24T09:46:06;14.27;;;3.75;;
20322;SDS011;10319;52.206;20.996;2023-04-24T09:48:35;11.60;;;3.72;;
20322;SDS011;10319;52.206;20.996;2023-04-24T09:51:01;14.40;;;3.47;;
20322;SDS011;10319;52.206;20.996;2023-04-24T09:53:29;11.63;;;3.55;;
20322;SDS011;10319;52.206;20.996;2023-04-24T09:55:54;11.70;;;3.30;;
20322;SDS011;10319;52.206;20.996;2023-04-24T09:58:25;11.07;;;3.50;;
20322;SDS011;10319;52.206;20.996;2023-04-24T10:00:54;10.80;;;3.10;;
20322;SDS011;10319;52.206;20.996;2023-04-24T10:03:20;11.40;;;3.15;;
20322;SDS011;10319;52.206;20.996;2023-04-24T10:05:46;8.57;;;2.38;;
20322;SDS011;10319;52.206;20.996;2023-04-24T10:08:11;8.85;;;2.55;;
20322;SDS011;10319;52.206;20.996;2023-04-24T10:10:41;11.10;;;2.80;;
20322;SDS011;10319;52.206;20.996;2023-04-24T10:13:07;9.88;;;2.55;;
20322;SDS011;10319;52.206;20.996;2023-04-24T10:15:32;10.32;;;2.95;;
20322;SDS011;10319;52.206;20.996;2023-04-24T10:17:58;13.20;;;2.92;;
20322;SDS011;10319;52.206;20.996;2023-04-24T10:20:24;10.70;;;2.97;;
20322;SDS011;10319;52.206;20.996;2023-04-24T10:22:50;12.23;;;3.20;;
20322;SDS011;10319;52.206;20.996;2023-04-24T10:25:16;11.75;;;3.40;;
20322;SDS011;10319;52.206;20.996;2023-04-24T10:27:43;12.65;;;3.40;;
20322;SDS011;10319;52.206;20.996;2023-04-24T10:30:20;10.70;;;3.45;;
20322;SDS011;10319;52.206;20.996;2023-04-24T10:32:56;13.85;;;4.13;;
20322;SDS011;10319;52.206;20.996;2023-04-24T10:35:23;18.23;;;4.95;;
20322;SDS011;10319;52.206;20.996;2023-04-24T10:40:18;12.00;;;3.60;;
20322;SDS011;10319;52.206;20.996;2023-04-24T10:42:46;18.25;;;4.55;;
20322;SDS011;10319;52.206;20.996;2023-04-24T10:45:18;14.80;;;3.83;;
20322;SDS011;10319;52.206;20.996;2023-04-24T10:50:20;9.57;;;2.78;;
20322;SDS011;10319;52.206;20.996;2023-04-24T10:52:49;12.20;;;3.53;;
20322;SDS011;10319;52.206;20.996;2023-04-24T10:55:16;13.85;;;3.83;;
20322;SDS011;10319;52.206;20.996;2023-04-24T11:00:26;10.10;;;3.03;;
20322;SDS011;10319;52.206;20.996;2023-04-24T11:02:52;10.73;;;3.00;;
20322;SDS011;10319;52.206;20.996;2023-04-24T11:05:18;12.32;;;2.83;;
20322;SDS011;10319;52.206;20.996;2023-04-24T11:10:28;12.13;;;3.13;;
20322;SDS011;10319;52.206;20.996;2023-04-24T11:12:53;10.20;;;3.08;;
20322;SDS011;10319;52.206;20.996;2023-04-24T11:15:18;12.27;;;2.85;;
20322;SDS011;10319;52.206;20.996;2023-04-24T11:17:44;11.73;;;3.08;;
20322;SDS011;10319;52.206;20.996;2023-04-24T11:20:10;8.73;;;2.75;;
20322;SDS011;10319;52.206;20.996;2023-04-24T11:22:37;10.10;;;2.85;;
20322;SDS011;10319;52.206;20.996;2023-04-24T11:25:04;9.13;;;2.50;;
20322;SDS011;10319;52.206;20.996;2023-04-24T11:27:38;9.85;;;2.72;;
20322;SDS011;10319;52.206;20.996;2023-04-24T11:30:04;8.00;;;2.40;;
20322;SDS011;10319;52.206;20.996;2023-04-24T11:37:24;8.40;;;2.30;;
20322;SDS011;10319;52.206;20.996;2023-04-24T11:39:56;7.93;;;2.15;;
20322;SDS011;10319;52.206;20.996;2023-04-24T11:42:22;6.22;;;2.00;;
20322;SDS011;10319;52.206;20.996;2023-04-24T11:44:49;7.18;;;2.00;;
20322;SDS011;10319;52.206;20.996;2023-04-24T11:47:14;7.35;;;2.15;;
20322;SDS011;10319;52.206;20.996;2023-04-24T11:49:40;6.88;;;2.10;;
20322;SDS011;10319;52.206;20.996;2023-04-24T11:52:05;10.15;;;2.33;;
20322;SDS011;10319;52.206;20.996;2023-04-24T11:54:31;6.35;;;2.03;;
20322;SDS011;10319;52.206;20.996;2023-04-24T11:56:57;6.10;;;2.00;;
20322;SDS011;10319;52.206;20.996;2023-04-24T11:59:22;9.18;;;2.20;;
20322;SDS011;10319;52.206;20.996;2023-04-24T12:01:48;8.52;;;2.10;;
20322;SDS011;10319;52.206;20.996;2023-04-24T12:04:16;8.00;;;2.30;;
20322;SDS011;10319;52.206;20.996;2023-04-24T12:07:02;9.15;;;2.20;;
20322;SDS011;10319;52.206;20.996;2023-04-24T12:09:27;7.85;;;2.28;;
20322;SDS011;10319;52.206;20.996;2023-04-24T12:11:58;8.47;;;2.20;;
20322;SDS011;10319;52.206;20.996;2023-04-24T12:14:23;7.47;;;2.10;;
20322;SDS011;10319;52.206;20.996;2023-04-24T12:16:49;8.80;;;2.08;;
20322;SDS011;10319;52.206;20.996;2023-04-24T12:19:20;8.02;;;1.95;;
20322;SDS011;10319;52.206;20.996;2023-04-24T12:21:58;6.70;;;2.10;;
20322;SDS011;10319;52.206;20.996;2023-04-24T12:24:23;8.27;;;2.15;;
20322;SDS011;10319;52.206;20.996;2023-04-24T12:26:48;7.37;;;1.97;;
20322;SDS011;10319;52.206;20.996;2023-04-24T12:29:19;7.00;;;1.97;;
20322;SDS011;10319;52.206;20.996;2023-04-24T12:31:44;5.63;;;1.77;;
20322;SDS011;10319;52.206;20.996;2023-04-24T12:34:19;8.30;;;2.10;;
20322;SDS011;10319;52.206;20.996;2023-04-24T12:36:45;7.45;;;2.05;;
20322;SDS011;10319;52.206;20.996;2023-04-24T12:39:19;6.47;;;1.93;;
20322;SDS011;10319;52.206;20.996;2023-04-24T12:41:54;7.25;;;1.90;;
20322;SDS011;10319;52.206;20.996;2023-04-24T12:44:28;14.10;;;2.03;;
20322;SDS011;10319;52.206;20.996;2023-04-24T12:46:53;16.08;;;2.47;;
20322;SDS011;10319;52.206;20.996;2023-04-24T12:49:18;12.10;;;2.23;;
20322;SDS011;10319;52.206;20.996;2023-04-24T12:51:43;11.73;;;1.63;;
20322;SDS011;10319;52.206;20.996;2023-04-24T12:54:08;10.57;;;1.90;;
20322;SDS011;10319;52.206;20.996;2023-04-24T12:56:34;13.38;;;1.75;;
20322;SDS011;10319;52.206;20.996;2023-04-24T12:59:01;10.10;;;1.60;;
20322;SDS011;10319;52.206;20.996;2023-04-24T13:01:26;12.00;;;1.70;;
20322;SDS011;10319;52.206;20.996;2023-04-24T13:03:51;12.00;;;2.00;;
20322;SDS011;10319;52.206;20.996;2023-04-24T13:06:17;7.90;;;1.60;;
20322;SDS011;10319;52.206;20.996;2023-04-24T13:08:42;11.20;;;1.50;;
20322;SDS011;10319;52.206;20.996;2023-04-24T13:11:07;7.10;;;1.43;;
20322;SDS011;10319;52.206;20.996;2023-04-24T13:13:32;13.43;;;2.33;;
20322;SDS011;10319;52.206;20.996;2023-04-24T13:15:57;11.20;;;1.87;;
20322;SDS011;10319;52.206;20.996;2023-04-24T13:18:23;9.03;;;1.80;;
20322;SDS011;10319;52.206;20.996;2023-04-24T13:20:48;7.37;;;1.70;;
20322;SDS011;10319;52.206;20.996;2023-04-24T13:23:13;11.40;;;1.67;;
20322;SDS011;10319;52.206;20.996;2023-04-24T13:25:39;8.88;;;1.80;;
20322;SDS011;10319;52.206;20.996;2023-04-24T13:28:05;5.78;;;1.55;;
20322;SDS011;10319;52.206;20.996;2023-04-24T13:30:31;4.78;;;1.30;;
20322;SDS011;10319;52.206;20.996;2023-04-24T13:32:57;6.03;;;1.33;;
20322;SDS011;10319;52.206;20.996;2023-04-24T13:35:22;6.43;;;1.43;;
20322;SDS011;10319;52.206;20.996;2023-04-24T13:37:47;9.02;;;1.63;;
20322;SDS011;10319;52.206;20.996;2023-04-24T13:40:13;8.30;;;1.57;;
20322;SDS011;10319;52.206;20.996;2023-04-24T13:42:39;8.33;;;1.60;;
20322;SDS011;10319;52.206;20.996;2023-04-24T13:45:05;5.70;;;1.67;;
20322;SDS011;10319;52.206;20.996;2023-04-24T13:47:30;5.82;;;1.48;;
20322;SDS011;10319;52.206;20.996;2023-04-24T13:49:55;7.53;;;1.50;;
20322;SDS011;10319;52.206;20.996;2023-04-24T13:52:21;7.72;;;1.58;;
20322;SDS011;10319;52.206;20.996;2023-04-24T13:54:46;8.80;;;1.50;;
20322;SDS011;10319;52.206;20.996;2023-04-24T13:57:11;6.40;;;1.70;;
20322;SDS011;10319;52.206;20.996;2023-04-24T13:59:36;6.17;;;1.30;;
20322;SDS011;10319;52.206;20.996;2023-04-24T14:02:02;4.35;;;1.58;;
20322;SDS011;10319;52.206;20.996;2023-04-24T14:04:27;5.00;;;1.30;;
20322;SDS011;10319;52.206;20.996;2023-04-24T14:06:52;8.17;;;3.10;;
20322;SDS011;10319;52.206;20.996;2023-04-24T14:09:17;5.13;;;1.40;;
20322;SDS011;10319;52.206;20.996;2023-04-24T14:11:43;6.35;;;1.70;;
20322;SDS011;10319;52.206;20.996;2023-04-24T14:14:08;5.85;;;1.52;;
20322;SDS011;10319;52.206;20.996;2023-04-24T14:16:33;7.47;;;1.60;;
20322;SDS011;10319;52.206;20.996;2023-04-24T14:18:59;6.13;;;1.50;;
20322;SDS011;10319;52.206;20.996;2023-04-24T14:21:25;4.45;;;1.60;;
20322;SDS011;10319;52.206;20.996;2023-04-24T14:23:50;4.57;;;1.50;;
20322;SDS011;10319;52.206;20.996;2023-04-24T14:26:15;7.90;;;1.70;;
20322;SDS011;10319;52.206;20.996;2023-04-24T14:28:41;5.32;;;1.50;;
20322;SDS011;10319;52.206;20.996;2023-04-24T14:31:06;4.32;;;1.60;;
20322;SDS011;10319;52.206;20.996;2023-04-24T14:33:31;4.65;;;1.65;;
20322;SDS011;10319;52.206;20.996;2023-04-24T14:35:56;5.88;;;1.50;;